createdAt,value
2022-11-29T00:01:43.208Z,35.28
2022-11-29T00:04:12.340Z,35.15
2022-11-29T00:06:42.156Z,35.53
2022-11-29T00:09:13.810Z,34.65
2022-11-29T00:12:01.020Z,33.40
2022-11-29T00:14:30.115Z,32.47
2022-11-29T00:17:02.233Z,31.13
2022-11-29T00:19:31.284Z,29.90
2022-11-29T00:22:01.443Z,28.27
2022-11-29T00:24:32.453Z,27.00
2022-11-29T00:27:01.890Z,28.38
2022-11-29T00:29:31.555Z,29.35
2022-11-29T00:32:00.428Z,28.42
2022-11-29T00:34:29.269Z,28.10
2022-11-29T00:36:57.625Z,27.80
2022-11-29T00:39:27.753Z,29.77
2022-11-29T00:41:56.615Z,27.30
2022-11-29T00:44:25.090Z,24.98
2022-11-29T00:46:53.293Z,24.80
2022-11-29T00:49:21.614Z,25.80
2022-11-29T00:51:50.020Z,25.63
2022-11-29T00:54:18.652Z,24.58
2022-11-29T00:56:48.698Z,25.20
2022-11-29T00:59:17.320Z,27.20
2022-11-29T01:01:45.749Z,30.10
2022-11-29T01:04:14.654Z,30.10
2022-11-29T01:06:42.939Z,34.90
2022-11-29T01:09:11.778Z,28.17
2022-11-29T01:11:40.098Z,29.83
2022-11-29T01:14:09.818Z,29.60
2022-11-29T01:16:38.203Z,28.05
2022-11-29T01:19:07.807Z,30.10
2022-11-29T01:21:36.083Z,30.70
2022-11-29T01:24:04.556Z,28.85
2022-11-29T01:26:33.341Z,28.58
2022-11-29T01:29:02.037Z,30.13
2022-11-29T01:31:35.990Z,30.75
2022-11-29T01:34:07.366Z,29.23
2022-11-29T01:36:35.936Z,29.65
2022-11-29T01:39:07.356Z,30.67
2022-11-29T01:41:38.441Z,27.85
2022-11-29T01:44:46.991Z,29.48
2022-11-29T01:47:17.842Z,26.70
2022-11-29T01:49:49.017Z,28.65
2022-11-29T01:52:22.944Z,27.23
2022-11-29T01:54:57.072Z,26.88
2022-11-29T01:57:26.408Z,27.27
2022-11-29T02:00:08.766Z,26.88
2022-11-29T02:02:43.728Z,27.83
2022-11-29T02:05:14.789Z,27.88
2022-11-29T02:07:47.475Z,27.15
2022-11-29T02:10:17.164Z,26.02
2022-11-29T02:12:58.073Z,25.60
2022-11-29T02:15:37.871Z,25.83
2022-11-29T02:18:14.729Z,25.38
2022-11-29T02:21:14.719Z,27.50
2022-11-29T02:24:10.983Z,28.25
2022-11-29T02:27:20.694Z,26.67
2022-11-29T02:30:25.365Z,27.38
2022-11-29T02:33:50.833Z,28.80
2022-11-29T02:36:51.171Z,28.30
2022-11-29T02:40:25.852Z,28.75
2022-11-29T02:43:19.018Z,31.30
2022-11-29T02:46:16.083Z,29.77
2022-11-29T02:48:59.051Z,31.35
2022-11-29T02:51:36.456Z,29.98
2022-11-29T02:54:13.951Z,31.40
2022-11-29T02:56:48.055Z,29.88
2022-11-29T02:59:33.529Z,28.25
2022-11-29T03:02:09.999Z,29.92
2022-11-29T03:04:49.539Z,27.33
2022-11-29T03:07:28.421Z,28.33
2022-11-29T03:10:05.469Z,29.27
2022-11-29T03:12:41.694Z,27.48
2022-11-29T03:15:29.352Z,27.92
2022-11-29T03:18:21.753Z,27.98
2022-11-29T03:21:08.916Z,28.58
2022-11-29T03:23:40.891Z,28.00
2022-11-29T03:26:12.885Z,28.85
2022-11-29T03:28:49.011Z,28.25
2022-11-29T03:31:26.301Z,29.02
2022-11-29T03:34:06.437Z,28.00
2022-11-29T03:36:46.883Z,27.67
2022-11-29T03:39:22.421Z,28.27
2022-11-29T03:41:57.850Z,29.58
2022-11-29T03:44:32.155Z,30.20
2022-11-29T03:47:06.098Z,35.45
2022-11-29T03:49:42.320Z,32.17
2022-11-29T03:52:20.508Z,32.83
2022-11-29T03:55:01.863Z,34.58
2022-11-29T03:57:37.753Z,30.60
2022-11-29T04:00:11.114Z,33.22
2022-11-29T04:03:34.283Z,31.48
2022-11-29T04:06:22.086Z,30.65
2022-11-29T04:09:31.566Z,32.05
2022-11-29T04:12:29.150Z,31.55
2022-11-29T04:15:45.988Z,30.63
2022-11-29T04:19:01.162Z,29.45
2022-11-29T04:21:53.321Z,30.38
2022-11-29T04:24:51.526Z,31.58
2022-11-29T04:27:49.832Z,32.75
2022-11-29T04:30:23.446Z,32.10
2022-11-29T04:33:48.704Z,32.67
2022-11-29T04:36:50.389Z,34.25
2022-11-29T04:39:54.785Z,35.60
2022-11-29T04:43:29.464Z,35.25
2022-11-29T04:46:47.965Z,34.95
2022-11-29T04:49:58.321Z,38.47
2022-11-29T04:52:47.893Z,32.83
2022-11-29T04:55:31.079Z,31.42
2022-11-29T04:58:18.083Z,31.35
2022-11-29T05:00:59.516Z,35.83
2022-11-29T05:03:40.974Z,32.30
2022-11-29T05:06:25.583Z,37.17
2022-11-29T05:09:05.108Z,35.63
2022-11-29T05:11:49.089Z,33.85
2022-11-29T05:14:32.592Z,32.88
2022-11-29T05:17:26.457Z,35.67
2022-11-29T05:20:14.505Z,37.38
2022-11-29T05:22:58.895Z,34.50
2022-11-29T05:25:41.415Z,34.33
2022-11-29T05:28:17.572Z,35.10
2022-11-29T05:31:05.340Z,33.47
2022-11-29T05:34:00.470Z,36.58
2022-11-29T05:36:40.088Z,34.83
2022-11-29T05:39:34.318Z,33.55
2022-11-29T05:42:41.376Z,32.90
2022-11-29T05:45:18.234Z,34.83
2022-11-29T05:47:55.251Z,33.90
2022-11-29T05:50:30.288Z,35.58
2022-11-29T05:53:12.151Z,33.97
2022-11-29T05:55:55.237Z,33.15
2022-11-29T05:58:32.928Z,32.15
2022-11-29T06:01:06.522Z,33.85
2022-11-29T06:03:40.578Z,32.75
2022-11-29T06:06:18.365Z,32.28
2022-11-29T06:08:56.126Z,33.42
2022-11-29T06:11:30.029Z,32.55
2022-11-29T06:14:06.647Z,33.28
2022-11-29T06:16:56.913Z,34.15
2022-11-29T06:19:54.280Z,35.45
2022-11-29T06:22:46.129Z,35.28
2022-11-29T06:25:27.605Z,34.92
2022-11-29T06:28:30.272Z,36.42
2022-11-29T06:31:07.126Z,36.42
2022-11-29T06:33:47.132Z,35.65
2022-11-29T06:36:21.306Z,37.35
2022-11-29T06:38:51.448Z,37.17
2022-11-29T06:41:23.940Z,37.58
2022-11-29T06:43:53.314Z,37.22
2022-11-29T06:46:36.211Z,36.28
2022-11-29T06:49:11.125Z,38.25
2022-11-29T06:51:50.412Z,36.60
2022-11-29T06:54:47.226Z,37.90
2022-11-29T06:57:21.993Z,37.78
2022-11-29T07:00:06.560Z,37.67
2022-11-29T07:03:03.120Z,40.40
2022-11-29T07:05:33.980Z,37.35
2022-11-29T07:08:07.018Z,36.63
2022-11-29T07:10:41.438Z,35.67
2022-11-29T07:13:12.621Z,38.60
2022-11-29T07:15:48.264Z,36.55
2022-11-29T07:18:28.814Z,36.13
2022-11-29T07:21:09.036Z,36.80
2022-11-29T07:23:45.249Z,39.58
2022-11-29T07:26:22.762Z,36.53
2022-11-29T07:29:10.668Z,39.97
2022-11-29T07:31:53.460Z,37.90
2022-11-29T07:34:31.334Z,37.85
2022-11-29T07:37:09.451Z,38.65
2022-11-29T07:39:51.750Z,40.08
2022-11-29T07:42:32.980Z,41.95
2022-11-29T07:45:14.217Z,45.75
2022-11-29T07:47:42.416Z,50.58
2022-11-29T07:50:14.988Z,41.10
2022-11-29T07:52:43.364Z,43.72
2022-11-29T07:55:18.669Z,43.65
2022-11-29T07:57:49.357Z,39.15
2022-11-29T08:00:19.623Z,39.88
2022-11-29T08:02:48.909Z,42.38
2022-11-29T08:05:17.737Z,39.78
2022-11-29T08:07:46.588Z,39.00
2022-11-29T08:10:17.524Z,42.88
2022-11-29T08:12:50.356Z,39.10
2022-11-29T08:15:21.975Z,40.53
2022-11-29T08:17:50.978Z,39.25
2022-11-29T08:20:19.544Z,42.92
2022-11-29T08:22:56.435Z,40.60
2022-11-29T08:25:24.778Z,43.15
2022-11-29T08:27:55.627Z,40.83
2022-11-29T08:30:24.496Z,40.50
2022-11-29T08:32:53.682Z,40.58
2022-11-29T08:35:24.292Z,39.50
2022-11-29T08:37:52.628Z,41.50
2022-11-29T08:40:20.962Z,39.08
2022-11-29T08:42:49.280Z,39.30
2022-11-29T08:45:19.087Z,41.55
2022-11-29T08:47:47.561Z,40.88
2022-11-29T08:50:19.013Z,37.53
2022-11-29T08:53:07.319Z,40.30
2022-11-29T08:55:39.941Z,36.95
2022-11-29T08:58:11.139Z,35.30
2022-11-29T09:00:41.993Z,34.90
2022-11-29T09:03:27.969Z,38.00
2022-11-29T09:05:57.558Z,36.85
2022-11-29T09:08:25.854Z,40.28
2022-11-29T09:10:54.940Z,40.30
2022-11-29T09:13:23.115Z,42.10
2022-11-29T09:15:52.921Z,40.85
2022-11-29T09:18:22.740Z,38.53
2022-11-29T09:20:50.914Z,36.78
2022-11-29T09:23:19.123Z,37.67
2022-11-29T09:25:50.292Z,38.55
2022-11-29T09:28:18.584Z,37.80
2022-11-29T09:30:46.825Z,36.10
2022-11-29T09:33:16.509Z,38.67
2022-11-29T09:35:44.727Z,38.33
2022-11-29T09:38:13.573Z,42.05
2022-11-29T09:40:49.770Z,41.67
2022-11-29T09:43:29.029Z,42.50
2022-11-29T09:46:04.535Z,40.13
2022-11-29T09:49:00.837Z,34.50
2022-11-29T09:51:44.008Z,35.60
2022-11-29T09:54:30.633Z,36.53
2022-11-29T09:56:59.160Z,30.83
2022-11-29T09:59:31.860Z,30.73
2022-11-29T10:02:05.455Z,31.13
2022-11-29T10:04:42.723Z,31.55
2022-11-29T10:07:21.914Z,29.02
2022-11-29T10:09:55.796Z,30.80
2022-11-29T10:12:35.358Z,30.85
2022-11-29T10:15:14.043Z,30.20
2022-11-29T10:17:50.868Z,31.00
2022-11-29T10:20:23.419Z,24.80
2022-11-29T10:22:56.652Z,27.95
2022-11-29T10:25:27.710Z,28.13
2022-11-29T10:27:55.960Z,27.27
2022-11-29T10:30:24.348Z,28.73
2022-11-29T10:32:58.337Z,27.95
2022-11-29T10:35:29.471Z,26.27
2022-11-29T10:40:55.689Z,25.67
2022-11-29T10:43:25.303Z,29.33
2022-11-29T10:45:56.244Z,26.67
2022-11-29T10:48:28.552Z,26.08
2022-11-29T10:50:58.198Z,23.70
2022-11-29T10:53:30.788Z,26.20
2022-11-29T10:56:06.750Z,26.08
2022-11-29T10:58:35.577Z,28.52
2022-11-29T11:01:06.952Z,27.17
2022-11-29T11:03:42.471Z,25.55
2022-11-29T11:06:15.077Z,27.58
2022-11-29T11:08:47.354Z,31.58
2022-11-29T11:11:16.200Z,31.80
2022-11-29T11:13:44.463Z,29.33
2022-11-29T11:16:19.093Z,31.55
2022-11-29T11:18:49.113Z,30.70
2022-11-29T11:21:22.857Z,31.45
2022-11-29T11:23:58.470Z,33.10
2022-11-29T11:26:27.963Z,32.30
2022-11-29T11:29:00.092Z,32.47
2022-11-29T11:31:34.168Z,33.17
2022-11-29T11:34:27.256Z,33.58
2022-11-29T11:37:25.028Z,31.35
2022-11-29T11:39:57.018Z,31.50
2022-11-29T11:42:38.879Z,30.88
2022-11-29T11:45:28.529Z,32.20
2022-11-29T11:47:59.522Z,29.38
2022-11-29T11:50:35.009Z,29.38
2022-11-29T11:53:08.208Z,30.10
2022-11-29T11:55:40.930Z,29.58
2022-11-29T11:58:18.978Z,31.13
2022-11-29T12:01:07.132Z,32.50
2022-11-29T12:03:43.132Z,30.17
2022-11-29T12:06:30.359Z,30.27
2022-11-29T12:09:07.051Z,34.80
2022-11-29T12:11:46.730Z,33.63
2022-11-29T12:14:26.902Z,33.33
2022-11-29T12:17:07.092Z,32.88
2022-11-29T12:19:47.771Z,34.70
2022-11-29T12:22:24.511Z,34.63
2022-11-29T12:25:00.462Z,35.55
2022-11-29T12:27:28.768Z,34.45
2022-11-29T12:29:58.365Z,32.42
2022-11-29T12:32:59.120Z,32.97
2022-11-29T12:35:54.968Z,31.15
2022-11-29T12:38:43.224Z,30.20
2022-11-29T12:41:30.802Z,29.45
2022-11-29T12:44:13.726Z,31.08
2022-11-29T12:47:02.119Z,30.58
2022-11-29T12:49:49.688Z,31.83
2022-11-29T12:52:24.753Z,32.05
2022-11-29T12:55:03.171Z,33.28
2022-11-29T12:57:40.381Z,32.17
2022-11-29T13:00:13.065Z,32.25
2022-11-29T13:02:57.414Z,31.45
2022-11-29T13:05:40.370Z,32.10
2022-11-29T13:08:29.466Z,33.60
2022-11-29T13:11:08.156Z,33.13
2022-11-29T13:13:44.093Z,33.83
2022-11-29T13:16:31.495Z,34.90
2022-11-29T13:19:06.744Z,35.90
2022-11-29T13:21:42.159Z,33.53
2022-11-29T13:24:16.741Z,32.60
2022-11-29T13:26:46.054Z,32.00
2022-11-29T13:29:18.847Z,32.88
2022-11-29T13:31:49.153Z,32.83
2022-11-29T13:34:25.973Z,32.55
2022-11-29T13:37:06.411Z,32.47
2022-11-29T13:39:46.761Z,31.15
2022-11-29T13:42:23.091Z,29.73
2022-11-29T13:45:00.081Z,32.50
2022-11-29T13:47:28.417Z,32.33
2022-11-29T13:50:02.003Z,32.38
2022-11-29T13:52:41.100Z,30.58
2022-11-29T13:55:31.226Z,32.75
2022-11-29T13:58:32.644Z,30.67
2022-11-29T14:01:04.250Z,30.27
2022-11-29T14:03:38.702Z,32.15
2022-11-29T14:06:14.540Z,30.05
2022-11-29T14:09:19.810Z,31.35
2022-11-29T14:11:51.881Z,30.70
2022-11-29T14:14:27.081Z,29.92
2022-11-29T14:17:00.869Z,28.83
2022-11-29T14:19:33.947Z,28.92
2022-11-29T14:22:30.840Z,29.25
2022-11-29T14:25:49.906Z,29.75
2022-11-29T14:28:33.882Z,28.00
2022-11-29T14:31:03.309Z,28.38
2022-11-29T14:34:04.057Z,30.13
2022-11-29T14:36:51.721Z,30.58
2022-11-29T14:39:35.794Z,31.38
2022-11-29T14:42:16.958Z,32.00
2022-11-29T14:44:49.083Z,31.08
2022-11-29T14:47:29.748Z,29.38
2022-11-29T14:50:07.038Z,31.08
2022-11-29T14:52:39.280Z,32.08
2022-11-29T14:55:30.556Z,32.47
2022-11-29T14:58:22.280Z,35.13
2022-11-29T15:01:09.705Z,34.75
2022-11-29T15:03:48.564Z,36.92
2022-11-29T15:06:26.411Z,37.00
2022-11-29T15:09:04.178Z,45.50
2022-11-29T15:11:46.203Z,41.00
2022-11-29T15:14:28.793Z,38.92
2022-11-29T15:17:24.645Z,40.83
2022-11-29T15:20:26.719Z,39.55
2022-11-29T15:23:00.923Z,39.50
2022-11-29T15:25:41.191Z,40.95
2022-11-29T15:28:23.412Z,42.40
2022-11-29T15:31:02.823Z,42.50
2022-11-29T15:33:31.204Z,42.75
2022-11-29T15:36:07.372Z,42.83
2022-11-29T15:38:45.951Z,44.53
2022-11-29T15:41:22.263Z,44.75
2022-11-29T15:43:54.929Z,43.80
2022-11-29T15:46:26.938Z,47.80
2022-11-29T15:48:56.555Z,44.00
2022-11-29T15:51:31.200Z,51.60
2022-11-29T15:54:13.102Z,45.83
2022-11-29T15:56:46.928Z,46.10
2022-11-29T15:59:29.266Z,43.15
2022-11-29T16:02:01.731Z,43.58
2022-11-29T16:04:30.729Z,41.97
2022-11-29T16:06:59.478Z,43.10
2022-11-29T16:09:35.292Z,43.95
2022-11-29T16:12:04.362Z,45.35
2022-11-29T16:14:32.667Z,42.70
2022-11-29T16:17:03.341Z,42.08
2022-11-29T16:19:34.798Z,44.92
2022-11-29T16:22:14.292Z,44.00
2022-11-29T16:24:55.034Z,43.33
2022-11-29T16:27:24.044Z,46.28
2022-11-29T16:29:55.040Z,44.70
2022-11-29T16:32:30.437Z,44.78
2022-11-29T16:35:07.831Z,44.45
2022-11-29T16:37:41.568Z,45.90
2022-11-29T16:40:22.737Z,45.45
2022-11-29T16:43:12.559Z,42.22
2022-11-29T16:45:42.120Z,42.83
2022-11-29T16:48:31.995Z,43.65
2022-11-29T16:51:23.755Z,41.92
2022-11-29T16:53:53.635Z,40.67
2022-11-29T16:56:27.337Z,40.95
2022-11-29T16:59:25.740Z,42.47
2022-11-29T17:01:46.187Z,43.47
2022-11-29T17:04:24.309Z,43.30
2022-11-29T17:06:54.504Z,43.88
2022-11-29T17:09:26.517Z,45.05
2022-11-29T17:11:59.712Z,44.67
2022-11-29T17:14:28.585Z,42.90
2022-11-29T17:16:57.109Z,42.75
2022-11-29T17:19:26.033Z,43.08
2022-11-29T17:21:55.248Z,39.38
2022-11-29T17:24:25.262Z,40.60
2022-11-29T17:26:54.933Z,38.65
2022-11-29T17:29:23.288Z,38.35
2022-11-29T17:31:53.196Z,36.70
2022-11-29T17:34:21.597Z,40.95
2022-11-29T17:36:49.912Z,39.80
2022-11-29T17:39:20.236Z,40.08
2022-11-29T17:41:48.838Z,40.53
2022-11-29T17:44:18.488Z,41.10
2022-11-29T17:46:46.922Z,41.63
2022-11-29T17:49:15.281Z,42.45
2022-11-29T17:51:51.659Z,40.45
2022-11-29T17:54:21.258Z,34.55
2022-11-29T17:56:49.847Z,35.58
2022-11-29T17:59:20.531Z,34.47
2022-11-29T18:01:49.306Z,34.85
2022-11-29T18:04:17.849Z,35.92
2022-11-29T18:06:50.030Z,36.55
2022-11-29T18:09:20.176Z,38.78
2022-11-29T18:11:50.651Z,39.50
2022-11-29T18:14:23.692Z,41.33
2022-11-29T18:16:52.747Z,35.75
2022-11-29T18:19:23.716Z,37.92
2022-11-29T18:21:52.581Z,38.67
2022-11-29T18:24:21.172Z,38.97
2022-11-29T18:26:49.913Z,38.13
2022-11-29T18:29:19.155Z,37.15
2022-11-29T18:31:49.124Z,35.20
2022-11-29T18:34:17.701Z,37.25
2022-11-29T18:36:48.429Z,33.95
2022-11-29T18:39:19.017Z,35.80
2022-11-29T18:41:49.360Z,39.53
2022-11-29T18:44:21.825Z,34.33
2022-11-29T18:46:52.269Z,39.83
2022-11-29T18:49:20.731Z,43.83
2022-11-29T18:51:50.406Z,41.47
2022-11-29T18:54:20.026Z,37.97
2022-11-29T18:56:51.200Z,38.70
2022-11-29T18:59:19.884Z,36.30
2022-11-29T19:01:51.284Z,38.60
2022-11-29T19:04:21.527Z,48.10
2022-11-29T19:06:50.406Z,38.88
2022-11-29T19:09:22.031Z,36.83
2022-11-29T19:11:51.319Z,40.83
2022-11-29T19:14:20.545Z,43.15
2022-11-29T19:16:51.206Z,40.42
2022-11-29T19:19:20.132Z,40.72
2022-11-29T19:21:48.853Z,47.80
2022-11-29T19:24:18.626Z,45.10
2022-11-29T19:26:49.068Z,42.10
2022-11-29T19:29:17.787Z,37.08
2022-11-29T19:31:46.255Z,38.45
2022-11-29T19:34:15.893Z,39.35
2022-11-29T19:36:45.339Z,37.42
2022-11-29T19:39:16.159Z,38.20
2022-11-29T19:41:46.857Z,37.15
2022-11-29T19:44:15.323Z,37.13
2022-11-29T19:46:47.033Z,38.78
2022-11-29T19:49:16.861Z,42.30
2022-11-29T19:51:45.125Z,40.65
2022-11-29T19:54:13.631Z,39.15
2022-11-29T19:56:42.151Z,42.85
2022-11-29T19:59:10.846Z,47.25
2022-11-29T20:01:42.337Z,37.05
2022-11-29T20:04:13.057Z,35.97
2022-11-29T20:06:42.775Z,34.88
2022-11-29T20:09:11.995Z,34.38
2022-11-29T20:11:40.529Z,32.35
2022-11-29T20:14:09.278Z,35.33
2022-11-29T20:16:39.227Z,34.63
2022-11-29T20:19:12.966Z,33.75
2022-11-29T20:21:46.871Z,35.05
2022-11-29T20:24:17.518Z,34.92
2022-11-29T20:26:48.007Z,34.83
2022-11-29T20:29:17.101Z,36.10
2022-11-29T20:31:50.530Z,34.33
2022-11-29T20:34:19.912Z,34.25
2022-11-29T20:37:21.210Z,36.10
2022-11-29T20:39:55.767Z,34.65
2022-11-29T20:43:03.075Z,34.05
2022-11-29T20:45:31.956Z,33.58
2022-11-29T20:48:09.397Z,32.53
2022-11-29T20:50:38.591Z,30.55
2022-11-29T20:53:23.466Z,30.33
2022-11-29T20:55:51.765Z,31.92
2022-11-29T20:58:23.199Z,32.42
2022-11-29T21:00:51.630Z,32.85
2022-11-29T21:03:21.435Z,33.58
2022-11-29T21:05:50.381Z,35.20
2022-11-29T21:08:22.188Z,32.97
2022-11-29T21:10:51.503Z,33.20
2022-11-29T21:13:22.319Z,34.40
2022-11-29T21:15:51.656Z,33.20
2022-11-29T21:18:24.091Z,30.88
2022-11-29T21:21:08.309Z,31.73
2022-11-29T21:23:50.652Z,30.65
2022-11-29T21:26:26.003Z,31.52
2022-11-29T21:29:07.197Z,31.17
2022-11-29T21:31:36.391Z,30.42
2022-11-29T21:34:05.889Z,31.52
2022-11-29T21:36:34.174Z,29.10
2022-11-29T21:39:05.421Z,30.58
2022-11-29T21:41:33.947Z,29.65
2022-11-29T21:44:07.000Z,27.58
2022-11-29T21:46:36.440Z,28.63
2022-11-29T21:49:05.345Z,28.38
2022-11-29T21:51:33.725Z,30.33
2022-11-29T21:54:04.089Z,29.17
2022-11-29T21:56:32.327Z,28.77
2022-11-29T21:59:00.568Z,29.60
2022-11-29T22:01:29.541Z,29.15
2022-11-29T22:03:57.829Z,26.80
2022-11-29T22:06:26.557Z,28.10
2022-11-29T22:08:54.978Z,28.50
2022-11-29T22:11:31.781Z,27.85
2022-11-29T22:14:18.262Z,28.05
2022-11-29T22:16:49.438Z,26.70
2022-11-29T22:19:19.556Z,28.20
2022-11-29T22:21:50.338Z,27.17
2022-11-29T22:24:21.549Z,27.15
2022-11-29T22:26:53.494Z,27.50
2022-11-29T22:29:22.803Z,27.90
2022-11-29T22:31:53.993Z,27.35
2022-11-29T22:34:23.584Z,28.25
2022-11-29T22:36:52.160Z,28.88
2022-11-29T22:39:20.410Z,28.77
2022-11-29T22:41:54.336Z,30.95
2022-11-29T22:44:23.649Z,32.42
2022-11-29T22:46:52.866Z,34.30
2022-11-29T22:49:21.145Z,35.88
2022-11-29T22:51:49.809Z,33.90
2022-11-29T22:54:18.023Z,35.63
2022-11-29T22:56:47.173Z,36.03
2022-11-29T22:59:16.766Z,36.42
2022-11-29T23:01:45.033Z,34.30
2022-11-29T23:04:14.298Z,36.08
2022-11-29T23:06:45.200Z,35.63
2022-11-29T23:09:16.702Z,34.83
2022-11-29T23:11:50.976Z,35.13
2022-11-29T23:14:21.043Z,32.05
2022-11-29T23:16:49.480Z,32.28
2022-11-29T23:19:17.853Z,32.88
2022-11-29T23:21:46.631Z,31.88
2022-11-29T23:24:15.330Z,32.92
2022-11-29T23:26:46.581Z,31.95
2022-11-29T23:29:17.324Z,31.65
2022-11-29T23:31:47.909Z,31.98
2022-11-29T23:34:16.359Z,31.75
2022-11-29T23:36:49.670Z,31.48
2022-11-29T23:39:20.732Z,32.63
2022-11-29T23:41:49.040Z,32.78
2022-11-29T23:44:17.213Z,30.42
2022-11-29T23:46:46.796Z,33.15
2022-11-29T23:49:14.987Z,33.42
2022-11-29T23:51:43.608Z,32.35
2022-11-29T23:54:12.022Z,31.95
2022-11-29T23:56:40.279Z,32.90
2022-11-29T23:59:08.712Z,32.78
